Airport View

Enter AWOS ICAO identifier for current METAR.

ex. KFNL

KSNH 031635Z AUTO 07005KT 10SM FEW032 FEW042 SCT065 31/24 A2997 RMK A01

3 Jul 2020 16:44

Frequency: 133.925

Phone: 731-925-6080

Other Area AWOS: KSZY - KCRX - KPVE - KMSL

TAF AMD KMSL 031122Z 0311/0406 VRB02KT P6SM SCT200 FM032000 VRB04KT P6SM FEW040 SCT200